Aguila, AZ

2:53 PM MST on January 29, 2015 (GMT -0700)
RAWS BELMONT AZ US | Change Station
CLOSE
Current Station
Personal Weather Station
Location: Tonopah, AZ
Elevation: 1854 ft
Nearby Weather Stations

Elev 1854 ft 33.67 °N, 112.92 °W | Updated 52 minutes ago

Partly Cloudy
Partly Cloudy
69 °F
Feels Like 69 °F
N
3
Wind Variable Wind from East
Gusts 7.0 mph

Today
High -- | Low -- °F
--% Chance of Precip.
Yesterday
High -- | Low -- °F
Precip. -- in
7:31 AM 6:00 PM
Waxing Gibbous, 77% visible
Pressure 30.01 in
Visibility 10.0 miles
Clouds Clear
Dew Point 42 °F
Humidity 38%
Rainfall 0.00 in
Snow Depth Not available.
UV 4 out of 12
Pollen 5.30 out of 12
Air Quality Not available.
Flu Activity Not available.
METAR KBXK 292135Z AUTO 21004KT 10SM CLR 18/14 A3001 RMK AO1

More Conditions Fewer Conditions

Pressure 30.01 in
Visibility 10.0 miles
Clouds Clear
Dew Point 42 °F
Humidity 38%
Rainfall 0.00 in
Snow Depth Not available.
UV 4 out of 12
Pollen 5.30 out of 12
Air Quality Not available.
Flu Activity Not available.
METAR KBXK 292135Z AUTO 21004KT 10SM CLR 18/14 A3001 RMK AO1

More Conditions Fewer Conditions

10-Day Weather Forecast

Almanac

Astronomy

Jan. 29, 2015 Rise Set
Actual Time
Civil Twilight
Nautical Twilight
Astronomical Twilight
Moon
Length of Visible Light
Length of Day
Tomorrow will be .
, % of the Moon is Illuminated

Today's Extremes

State Highs State Lows

Community

WunderPhotos

Upload Photos

1,791,615 photos uploaded!

WunderBlogs® & News

Nearby

Air Quality

  Air Quality AQ Index Pollutant
Not available.

Snow Depth

Station Depth Elevation

Earthquake Activity

City Distance Mag. Time & Date
Minimum magnitude displayed is 2.5.

Coastal Water Temperatures

Place Temperature

Nearby Weather Stations